Time;durP1;ratioP1;P1;durP2;ratioP2;P2;SDS_P1;SDS_P2;PMS_P1;PMS_P2;Temp;Humidity;BMP_temperature;BMP_pressure;BME280_temperature;BME280_humidity;BME280_pressure;Samples;Min_cycle;Max_cycle;Signal;HPM_P1;HPM_P2
2023/09/21 00:01:01;;;;;;;70.57;10.30;;;18.10;81.80;;;;;;4984376;28;20776;-79
2023/09/21 00:03:30;;;;;;;71.43;11.43;;;18.10;85.90;;;;;;4983725;28;20404;-79
2023/09/21 00:05:56;;;;;;;71.53;15.73;;;18.10;77.60;;;;;;4966641;28;20506;-79
2023/09/21 00:08:23;;;;;;;69.17;10.10;;;18.10;80.20;;;;;;4983586;28;20533;-79
2023/09/21 00:10:50;;;;;;;72.50;9.73;;;18.00;78.90;;;;;;4966070;28;20416;-79
2023/09/21 00:13:17;;;;;;;70.60;9.57;;;18.00;79.70;;;;;;4983805;28;20408;-79
2023/09/21 00:15:43;;;;;;;69.60;9.30;;;17.90;79.50;;;;;;4983933;28;20447;-79
2023/09/21 00:18:09;;;;;;;69.50;9.90;;;17.90;78.80;;;;;;4984073;28;20421;-79
2023/09/21 00:20:52;;;;;;;69.30;8.53;;;17.90;74.30;;;;;;4983435;28;20494;-79
2023/09/21 00:23:20;;;;;;;69.73;10.03;;;17.90;74.30;;;;;;4965605;28;20168;-78
2023/09/21 00:25:47;;;;;;;69.90;10.30;;;18.00;73.00;;;;;;4965669;28;20426;-79
2023/09/21 00:28:14;;;;;;;68.57;7.47;;;18.10;70.90;;;;;;4983695;28;20499;-79
2023/09/21 00:30:41;;;;;;;69.70;10.13;;;18.00;68.80;;;;;;4983884;28;20415;-79
2023/09/21 00:33:07;;;;;;;68.63;9.03;;;18.10;70.20;;;;;;4965607;28;20929;-79
2023/09/21 00:35:39;;;;;;;71.10;10.80;;;18.10;70.40;;;;;;4983208;28;20438;-79
2023/09/21 00:38:11;;;;;;;73.33;11.87;;;18.10;66.40;;;;;;4984006;28;20387;-79
2023/09/21 00:40:42;;;;;;;71.40;12.33;;;18.10;68.20;;;;;;4983267;28;20411;-78
2023/09/21 00:43:12;;;;;;;70.37;11.57;;;18.10;67.90;;;;;;4983312;28;20519;-78
2023/09/21 00:45:43;;;;;;;70.90;13.03;;;18.10;68.20;;;;;;4982953;28;20423;-79
2023/09/21 00:48:11;;;;;;;71.87;12.70;;;18.10;71.90;;;;;;4965588;28;20514;-79
2023/09/21 00:50:41;;;;;;;72.00;11.30;;;18.00;70.50;;;;;;4983842;28;20488;-78
2023/09/21 00:53:12;;;;;;;72.57;11.80;;;17.90;75.50;;;;;;4983174;28;20420;-79
2023/09/21 00:55:39;;;;;;;71.10;12.73;;;17.90;75.40;;;;;;4983075;28;20379;-79
2023/09/21 00:58:05;;;;;;;72.90;11.50;;;17.90;78.10;;;;;;4982701;28;20834;-79
2023/09/21 01:00:32;;;;;;;70.40;10.20;;;17.90;82.30;;;;;;4967761;28;20660;-79
2023/09/21 01:03:07;;;;;;;69.90;10.00;;;17.80;84.20;;;;;;4989017;28;20427;-79
2023/09/21 01:05:34;;;;;;;70.73;9.63;;;17.80;82.90;;;;;;4988372;28;20387;-79
2023/09/21 01:08:00;;;;;;;70.30;10.20;;;17.70;84.20;;;;;;4987604;28;20451;-79
2023/09/21 01:10:26;;;;;;;70.70;10.80;;;17.70;85.00;;;;;;4988097;28;20434;-79
2023/09/21 01:12:53;;;;;;;70.27;10.40;;;17.70;85.30;;;;;;4987356;28;20431;-79
2023/09/21 01:15:21;;;;;;;70.97;12.23;;;17.70;83.10;;;;;;4987684;28;20430;-79
2023/09/21 01:17:46;;;;;;;71.57;11.50;;;17.70;83.20;;;;;;4986619;28;20458;-79
2023/09/21 01:20:23;;;;;;;72.10;10.90;;;17.70;83.80;;;;;;4969953;28;20419;-79
2023/09/21 01:23:11;;;;;;;72.33;11.70;;;17.70;82.20;;;;;;4986777;28;20454;-79
2023/09/21 01:25:42;;;;;;;69.97;11.33;;;17.70;84.50;;;;;;4986529;28;20454;-78
2023/09/21 01:28:09;;;;;;;70.83;10.63;;;17.70;82.50;;;;;;4986781;28;20820;-78
2023/09/21 01:30:38;;;;;;;71.57;10.20;;;17.70;83.30;;;;;;4986650;28;20430;-79
2023/09/21 01:33:09;;;;;;;70.10;10.47;;;17.60;86.50;;;;;;4987461;28;20437;-78
2023/09/21 01:35:45;;;;;;;71.90;11.20;;;17.60;87.70;;;;;;4987269;28;20403;-79
2023/09/21 01:38:13;;;;;;;71.17;11.37;;;17.60;88.90;;;;;;4987713;28;20395;-79
2023/09/21 01:40:40;;;;;;;70.07;9.83;;;17.60;89.00;;;;;;4986912;28;20793;-79
2023/09/21 01:43:17;;;;;;;71.50;10.10;;;17.60;90.30;;;;;;4986583;28;20427;-78
2023/09/21 01:45:48;;;;;;;71.77;10.83;;;17.60;91.60;;;;;;4986719;28;20391;-78
2023/09/21 01:48:14;;;;;;;71.27;10.23;;;17.50;93.70;;;;;;4986444;28;20454;-79
2023/09/21 01:50:43;;;;;;;69.37;9.00;;;17.40;95.10;;;;;;4985800;28;20415;-79
2023/09/21 01:53:19;;;;;;;70.07;9.43;;;17.40;95.20;;;;;;4985766;28;20427;-79
2023/09/21 01:55:47;;;;;;;69.07;9.57;;;17.40;95.60;;;;;;4984780;28;20390;-79
2023/09/21 01:58:14;;;;;;;69.67;9.93;;;17.30;96.70;;;;;;4986004;28;20418;-78
2023/09/21 02:00:43;;;;;;;72.13;9.90;;;17.30;98.30;;;;;;4981125;28;20415;-78
2023/09/21 02:03:11;;;;;;;72.00;9.43;;;17.30;97.50;;;;;;4985493;28;20434;-79
2023/09/21 02:05:37;;;;;;;71.07;9.90;;;17.30;96.70;;;;;;4968501;28;20431;-79
2023/09/21 02:08:07;;;;;;;69.90;9.47;;;17.20;96.70;;;;;;4985780;28;20455;-79
2023/09/21 02:10:33;;;;;;;69.60;8.53;;;17.20;96.80;;;;;;4985379;28;20171;-78
2023/09/21 02:13:00;;;;;;;70.37;10.30;;;17.20;99.00;;;;;;4984104;28;20423;-78
2023/09/21 02:15:27;;;;;;;69.47;9.70;;;17.10;99.00;;;;;;4967776;28;20439;-79
2023/09/21 02:17:55;;;;;;;69.93;9.07;;;17.10;99.60;;;;;;4985644;28;20430;-78
2023/09/21 02:20:25;;;;;;;69.37;9.20;;;17.10;99.10;;;;;;4985187;28;20478;-79
2023/09/21 02:22:52;;;;;;;73.33;8.80;;;17.10;98.70;;;;;;4985177;28;20438;-79
2023/09/21 02:25:19;;;;;;;69.03;8.43;;;17.20;97.00;;;;;;4985464;28;20443;-79
2023/09/21 02:27:49;;;;;;;69.03;9.10;;;17.20;97.80;;;;;;4984737;28;20451;-79
2023/09/21 02:30:20;;;;;;;70.57;9.37;;;17.10;96.00;;;;;;4984722;28;20460;-78
2023/09/21 02:32:52;;;;;;;68.70;8.47;;;17.20;98.20;;;;;;4985734;28;20411;-78
2023/09/21 02:35:25;;;;;;;68.20;7.80;;;17.10;96.50;;;;;;4985831;28;20391;-79
2023/09/21 02:37:52;;;;;;;70.50;8.70;;;17.10;95.60;;;;;;4986091;28;20388;-78
2023/09/21 02:40:22;;;;;;;68.40;7.47;;;17.10;95.50;;;;;;4963944;28;20935;-78
2023/09/21 02:42:53;;;;;;;74.30;8.53;;;17.10;96.90;;;;;;4968363;28;20814;-79
2023/09/21 02:45:24;;;;;;;69.50;8.37;;;17.20;97.10;;;;;;4985919;28;20411;-79
2023/09/21 02:47:51;;;;;;;69.73;9.10;;;17.20;96.80;;;;;;4968795;28;20474;-79
2023/09/21 02:50:25;;;;;;;70.00;8.27;;;17.10;97.70;;;;;;4985383;28;20499;-79
2023/09/21 02:53:04;;;;;;;69.57;9.43;;;17.10;97.10;;;;;;4985856;28;20453;-79
2023/09/21 02:55:30;;;;;;;69.23;8.97;;;17.00;97.20;;;;;;4985767;28;20396;-79
2023/09/21 02:58:36;;;;;;;69.63;9.57;;;17.00;95.70;;;;;;4986146;28;20418;-79
2023/09/21 03:00:55;;;;;;;69.67;8.67;;;17.10;95.40;;;;;;4982539;28;20924;-78
2023/09/21 03:03:21;;;;;;;71.70;9.33;;;17.10;94.40;;;;;;4985756;28;20419;-79
2023/09/21 03:05:52;;;;;;;69.27;8.47;;;17.10;93.90;;;;;;4985453;28;20199;-79
2023/09/21 03:08:18;;;;;;;70.10;8.77;;;17.10;91.60;;;;;;4985201;28;20191;-79
2023/09/21 03:10:45;;;;;;;72.50;8.80;;;17.10;91.70;;;;;;4985219;28;20403;-80
2023/09/21 03:13:17;;;;;;;70.50;7.57;;;17.20;91.10;;;;;;4968018;28;20486;-79
2023/09/21 03:15:51;;;;;;;69.03;8.27;;;17.30;87.50;;;;;;4985288;28;20489;-79
2023/09/21 03:18:21;;;;;;;69.67;9.10;;;17.30;85.60;;;;;;4968061;28;20858;-78
2023/09/21 03:20:48;;;;;;;69.63;7.20;;;17.30;86.20;;;;;;4968037;28;20418;-79
2023/09/21 03:23:15;;;;;;;71.30;8.20;;;17.30;86.30;;;;;;4983354;28;20550;-79
2023/09/21 03:25:44;;;;;;;76.10;7.37;;;17.30;83.40;;;;;;4984594;28;20781;-78
2023/09/21 03:28:13;;;;;;;68.30;7.67;;;17.40;85.80;;;;;;4983572;28;20459;-79
2023/09/21 03:30:47;;;;;;;69.70;8.73;;;17.40;89.10;;;;;;4984051;28;20430;-79
2023/09/21 03:33:18;;;;;;;68.97;7.87;;;17.40;90.30;;;;;;4983698;28;20526;-78
2023/09/21 03:35:44;;;;;;;70.83;7.00;;;17.40;91.30;;;;;;4983371;28;20396;-78
2023/09/21 03:38:13;;;;;;;70.70;8.13;;;17.30;92.00;;;;;;4983756;28;20407;-79
2023/09/21 03:40:42;;;;;;;69.97;8.10;;;17.30;91.80;;;;;;4983638;28;20416;-78
2023/09/21 03:43:12;;;;;;;70.50;7.73;;;17.40;91.30;;;;;;4966413;28;20449;-79
2023/09/21 03:45:39;;;;;;;68.87;8.10;;;17.30;92.20;;;;;;4983719;28;20383;-79
2023/09/21 03:48:06;;;;;;;69.47;8.70;;;17.20;93.30;;;;;;4982963;28;20451;-79
2023/09/21 03:50:32;;;;;;;69.80;8.33;;;17.20;93.80;;;;;;4983895;28;20920;-78
2023/09/21 03:53:04;;;;;;;69.50;8.60;;;17.10;95.50;;;;;;4965621;28;20436;-78
2023/09/21 03:55:33;;;;;;;69.27;7.80;;;17.10;94.50;;;;;;4983686;28;20761;-79
2023/09/21 03:57:58;;;;;;;70.40;8.90;;;17.10;92.30;;;;;;4983531;28;20411;-79
2023/09/21 04:03:00;;;;;;;69.67;8.37;;;17.10;92.90;;;;;;4983267;28;20183;-79
2023/09/21 04:05:29;;;;;;;69.17;8.03;;;17.10;91.80;;;;;;4984767;28;20419;-79
2023/09/21 04:07:55;;;;;;;69.20;7.50;;;17.10;90.80;;;;;;4967134;28;20466;-79
2023/09/21 04:10:20;;;;;;;71.10;9.33;;;17.10;91.70;;;;;;4984255;28;20403;-79
2023/09/21 04:12:46;;;;;;;71.00;8.60;;;17.10;90.90;;;;;;4984159;28;20214;-79
2023/09/21 04:15:12;;;;;;;70.27;7.50;;;17.10;90.30;;;;;;4983790;28;20909;-78
2023/09/21 04:17:41;;;;;;;70.10;8.03;;;17.20;87.70;;;;;;4984199;28;20901;-79
2023/09/21 04:20:11;;;;;;;70.77;8.27;;;17.20;88.80;;;;;;4984635;28;20184;-78
2023/09/21 04:22:41;;;;;;;69.10;8.50;;;17.20;87.60;;;;;;4983795;28;20496;-78
2023/09/21 04:25:11;;;;;;;69.53;7.80;;;17.20;89.40;;;;;;4983942;28;20410;-79
2023/09/21 04:27:39;;;;;;;69.07;9.03;;;17.20;88.20;;;;;;4983956;28;20474;-79
2023/09/21 04:30:08;;;;;;;68.47;8.20;;;17.20;86.20;;;;;;4984450;28;20399;-79
2023/09/21 04:32:35;;;;;;;72.27;10.17;;;17.20;85.50;;;;;;4984191;28;20482;-79
2023/09/21 04:35:03;;;;;;;69.67;8.53;;;17.20;85.00;;;;;;4965940;28;20444;-79
2023/09/21 04:37:29;;;;;;;69.87;9.73;;;17.20;88.70;;;;;;4983197;28;20755;-78
2023/09/21 04:39:54;;;;;;;69.07;7.97;;;17.30;88.90;;;;;;4983221;28;20430;-79
2023/09/21 04:42:20;;;;;;;69.70;7.90;;;17.20;90.40;;;;;;4982942;28;20187;-78
2023/09/21 04:44:46;;;;;;;69.00;8.00;;;17.20;91.40;;;;;;4983396;28;20202;-78
2023/09/21 04:47:11;;;;;;;69.20;8.23;;;17.20;90.50;;;;;;4965664;28;20699;-79
2023/09/21 04:49:37;;;;;;;70.20;8.70;;;17.20;92.10;;;;;;4982918;28;20164;-79
2023/09/21 04:52:04;;;;;;;70.10;10.20;;;17.10;91.80;;;;;;4982567;28;20180;-78
2023/09/21 04:54:30;;;;;;;70.37;9.77;;;17.20;90.70;;;;;;4983124;28;20904;-79
2023/09/21 04:56:56;;;;;;;69.67;8.90;;;17.20;91.20;;;;;;4982953;28;20408;-78
2023/09/21 04:59:23;;;;;;;71.07;8.37;;;17.20;91.70;;;;;;4982520;28;20418;-78
2023/09/21 05:01:48;;;;;;;69.97;9.50;;;17.20;91.30;;;;;;4983261;28;20206;-78
2023/09/21 05:04:14;;;;;;;69.80;9.40;;;17.30;91.40;;;;;;4981867;28;20431;-78
2023/09/21 05:06:40;;;;;;;69.70;8.03;;;17.30;90.60;;;;;;4982383;28;20172;-78
2023/09/21 05:09:05;;;;;;;70.10;7.87;;;17.30;90.20;;;;;;4982086;28;20171;-78
2023/09/21 05:11:38;;;;;;;68.60;8.10;;;17.40;90.40;;;;;;4982356;28;20243;-78
2023/09/21 05:14:13;;;;;;;68.80;7.93;;;17.40;91.00;;;;;;4981995;28;20144;-78
2023/09/21 05:16:40;;;;;;;69.87;8.10;;;17.30;93.10;;;;;;4981860;28;20406;-78
2023/09/21 05:19:06;;;;;;;73.37;9.37;;;17.20;95.10;;;;;;4978059;28;20423;-78
2023/09/21 05:21:33;;;;;;;69.70;9.13;;;17.30;95.50;;;;;;4977997;28;20939;-78
2023/09/21 05:23:59;;;;;;;72.53;8.73;;;17.20;96.10;;;;;;4982168;28;20170;-78
2023/09/21 05:26:26;;;;;;;73.53;9.10;;;17.20;96.60;;;;;;4981937;28;20427;-79
2023/09/21 05:28:52;;;;;;;73.63;8.83;;;17.20;97.80;;;;;;4980731;28;20649;-78
2023/09/21 05:31:18;;;;;;;73.40;10.00;;;17.20;97.00;;;;;;4979394;28;20438;-78
2023/09/21 05:33:43;;;;;;;69.47;8.73;;;17.20;95.40;;;;;;4979594;28;20168;-78
2023/09/21 05:36:09;;;;;;;72.33;9.17;;;17.30;94.10;;;;;;4979494;28;20626;-77
2023/09/21 05:38:37;;;;;;;71.70;10.27;;;17.30;93.20;;;;;;4978926;28;20629;-78
2023/09/21 05:41:04;;;;;;;70.87;8.87;;;17.40;93.20;;;;;;4977566;28;20442;-77
2023/09/21 05:43:32;;;;;;;72.13;9.40;;;17.50;91.30;;;;;;4977482;28;20415;-78
2023/09/21 05:45:58;;;;;;;70.10;8.20;;;17.50;90.20;;;;;;4963260;28;20411;-78
2023/09/21 05:48:23;;;;;;;70.77;8.93;;;17.60;87.40;;;;;;4983541;28;20505;-78
2023/09/21 05:50:49;;;;;;;73.80;8.57;;;17.70;84.00;;;;;;4983577;28;20395;-78
2023/09/21 05:53:16;;;;;;;69.50;9.67;;;17.80;84.10;;;;;;4983559;28;20423;-78
2023/09/21 05:55:45;;;;;;;71.40;10.23;;;17.80;82.40;;;;;;4983208;28;20172;-78
2023/09/21 05:58:11;;;;;;;71.53;9.33;;;17.90;82.40;;;;;;4980033;28;20399;-77
2023/09/21 06:00:36;;;;;;;72.63;10.30;;;17.90;81.70;;;;;;4962436;28;20415;-77
2023/09/21 06:03:03;;;;;;;71.30;9.30;;;18.00;79.30;;;;;;4979396;28;20427;-77
2023/09/21 06:05:31;;;;;;;68.47;7.87;;;18.00;78.60;;;;;;4979507;28;20195;-77
2023/09/21 06:07:58;;;;;;;70.33;8.13;;;18.10;77.30;;;;;;4961988;28;20466;-78
2023/09/21 06:10:23;;;;;;;71.47;9.50;;;18.10;77.80;;;;;;4962108;28;20419;-77
2023/09/21 06:12:50;;;;;;;69.00;8.23;;;18.20;81.00;;;;;;4979227;28;20836;-77
2023/09/21 06:15:19;;;;;;;72.17;8.37;;;18.20;77.80;;;;;;4980341;28;20952;-78
2023/09/21 06:17:46;;;;;;;69.40;6.63;;;18.30;72.00;;;;;;4982185;28;20473;-78
2023/09/21 06:20:12;;;;;;;71.03;8.43;;;18.50;68.00;;;;;;4964432;28;20423;-77
2023/09/21 06:22:38;;;;;;;69.07;7.50;;;18.50;71.70;;;;;;4980940;28;20434;-78
2023/09/21 06:25:06;;;;;;;79.50;7.20;;;18.60;66.50;;;;;;4980298;28;20416;-78
2023/09/21 06:27:32;;;;;;;69.63;6.33;;;18.70;68.70;;;;;;4962739;28;20195;-78
2023/09/21 06:29:58;;;;;;;69.80;6.97;;;18.80;68.80;;;;;;4981026;28;20407;-78
2023/09/21 06:32:24;;;;;;;69.63;7.13;;;18.80;64.90;;;;;;4980220;28;20454;-77
2023/09/21 06:34:51;;;;;;;69.20;7.37;;;18.90;59.10;;;;;;4979745;28;20160;-77
2023/09/21 06:37:21;;;;;;;71.00;7.23;;;19.00;58.80;;;;;;4980937;28;20407;-77
2023/09/21 06:39:46;;;;;;;69.37;7.60;;;19.10;55.10;;;;;;4962896;28;20502;-77
2023/09/21 06:42:15;;;;;;;71.07;9.67;;;19.20;53.50;;;;;;4979944;28;20459;-77
2023/09/21 06:44:41;;;;;;;72.67;12.03;;;19.30;46.60;;;;;;4979856;28;20676;-77
2023/09/21 06:47:06;;;;;;;70.33;9.77;;;19.30;48.30;;;;;;4978576;28;20447;-77
2023/09/21 06:49:35;;;;;;;71.03;10.60;;;19.30;49.50;;;;;;4977019;28;20495;-77
2023/09/21 06:52:02;;;;;;;72.90;14.40;;;19.40;50.60;;;;;;4976575;28;20183;-77
2023/09/21 06:54:29;;;;;;;71.77;10.63;;;19.50;53.20;;;;;;4976343;28;20435;-77
2023/09/21 06:57:03;;;;;;;72.60;11.47;;;19.50;54.20;;;;;;4976303;28;20443;-77
2023/09/21 06:59:34;;;;;;;74.60;13.30;;;19.50;54.90;;;;;;4976301;28;20399;-77
2023/09/21 07:02:00;;;;;;;71.67;13.23;;;19.50;53.70;;;;;;4976467;28;20430;-77
2023/09/21 07:04:28;;;;;;;72.50;11.33;;;19.60;53.90;;;;;;4976288;28;20403;-77
2023/09/21 07:06:54;;;;;;;77.13;11.33;;;19.70;52.60;;;;;;4976586;28;20188;-77
2023/09/21 07:09:20;;;;;;;70.67;11.53;;;19.80;52.30;;;;;;4976382;28;20399;-77
2023/09/21 07:11:48;;;;;;;71.67;13.50;;;19.90;54.30;;;;;;4976005;28;20426;-77
2023/09/21 07:14:15;;;;;;;72.07;14.10;;;19.90;47.60;;;;;;4975885;28;20164;-77
2023/09/21 07:16:41;;;;;;;71.97;13.60;;;20.10;46.30;;;;;;4976095;28;20394;-77
2023/09/21 07:19:07;;;;;;;73.40;19.63;;;20.20;48.00;;;;;;4975926;28;20842;-77
2023/09/21 07:21:32;;;;;;;73.30;16.27;;;20.20;44.90;;;;;;4975959;28;20187;-77
2023/09/21 07:23:58;;;;;;;75.80;17.87;;;20.20;46.10;;;;;;4975835;28;20160;-77
2023/09/21 07:26:24;;;;;;;74.53;17.40;;;20.30;48.40;;;;;;4958535;28;20172;-77
2023/09/21 07:28:49;;;;;;;80.73;17.17;;;20.20;50.10;;;;;;4975549;28;20204;-77
2023/09/21 07:31:15;;;;;;;73.60;17.83;;;20.20;53.20;;;;;;4975919;28;20200;-77
2023/09/21 07:33:41;;;;;;;75.53;17.60;;;20.30;49.10;;;;;;4975711;28;20171;-77
2023/09/21 07:36:08;;;;;;;76.20;17.70;;;20.30;47.60;;;;;;4975977;28;20176;-77
2023/09/21 07:38:34;;;;;;;74.00;14.83;;;20.40;46.30;;;;;;4975800;28;20404;-77
2023/09/21 07:41:08;;;;;;;71.30;15.77;;;20.50;51.80;;;;;;4975724;28;20498;-77
2023/09/21 07:43:34;;;;;;;74.53;18.67;;;20.50;47.20;;;;;;4975806;28;20152;-77
2023/09/21 07:46:02;;;;;;;76.60;20.77;;;20.70;47.50;;;;;;4975698;28;20407;-77
2023/09/21 07:48:27;;;;;;;75.43;19.80;;;20.80;42.30;;;;;;4958037;28;20451;-78
2023/09/21 07:50:56;;;;;;;75.30;16.93;;;20.80;37.70;;;;;;4975536;28;20170;-77
2023/09/21 07:53:21;;;;;;;75.27;18.73;;;20.80;47.00;;;;;;4975879;28;20630;-77
2023/09/21 07:55:56;;;;;;;75.40;18.43;;;20.80;36.40;;;;;;4975367;28;20454;-77
2023/09/21 07:58:22;;;;;;;74.30;18.50;;;20.70;37.10;;;;;;4975741;28;20151;-77
2023/09/21 08:00:48;;;;;;;73.57;15.87;;;20.80;45.20;;;;;;4975641;28;20754;-77
2023/09/21 08:03:16;;;;;;;72.63;17.27;;;20.80;45.10;;;;;;4975321;28;20270;-77
2023/09/21 08:05:42;;;;;;;71.80;17.80;;;20.80;41.40;;;;;;4975148;28;20168;-77
2023/09/21 08:08:07;;;;;;;73.77;22.00;;;20.80;44.20;;;;;;4975068;28;20443;-77
2023/09/21 08:10:33;;;;;;;72.17;16.00;;;20.80;37.90;;;;;;4974774;28;20919;-77
2023/09/21 08:13:01;;;;;;;75.50;18.80;;;20.80;38.50;;;;;;4974922;28;20183;-77
2023/09/21 08:15:26;;;;;;;75.63;20.13;;;20.80;39.90;;;;;;4974858;28;20207;-77
2023/09/21 08:17:53;;;;;;;73.30;18.10;;;20.70;42.20;;;;;;4974977;28;20412;-77
2023/09/21 08:20:22;;;;;;;74.73;18.13;;;20.80;42.20;;;;;;4974694;28;20182;-77
2023/09/21 08:22:49;;;;;;;73.10;17.83;;;20.80;46.90;;;;;;4974901;28;20434;-77
2023/09/21 08:25:16;;;;;;;72.70;16.67;;;20.80;50.50;;;;;;4974669;28;20793;-77
2023/09/21 08:27:42;;;;;;;79.40;18.77;;;20.80;46.50;;;;;;4974777;28;20454;-77
2023/09/21 08:30:08;;;;;;;77.47;18.33;;;20.80;47.20;;;;;;4974910;28;20403;-77
2023/09/21 08:32:34;;;;;;;73.33;17.37;;;20.80;49.70;;;;;;4974853;28;20225;-77
2023/09/21 08:35:00;;;;;;;75.63;18.17;;;20.80;49.20;;;;;;4975798;28;20407;-77
2023/09/21 08:37:26;;;;;;;74.87;18.80;;;20.90;45.80;;;;;;4974694;28;20187;-77
2023/09/21 08:39:51;;;;;;;73.47;18.57;;;20.90;44.60;;;;;;4975081;28;20431;-77
2023/09/21 08:42:17;;;;;;;76.17;17.67;;;20.80;41.20;;;;;;4974735;28;20434;-77
2023/09/21 08:44:44;;;;;;;78.40;19.40;;;20.80;43.70;;;;;;4975042;28;20172;-77
2023/09/21 08:47:13;;;;;;;73.17;18.10;;;20.80;44.40;;;;;;4974312;28;20450;-77
2023/09/21 08:49:45;;;;;;;72.53;17.77;;;20.90;41.30;;;;;;4974558;28;20924;-77
2023/09/21 08:52:12;;;;;;;74.37;20.03;;;21.00;45.10;;;;;;4974604;28;20427;-77
2023/09/21 08:54:42;;;;;;;73.80;17.60;;;21.20;48.50;;;;;;4974549;28;20916;-77
2023/09/21 08:57:11;;;;;;;74.20;18.77;;;21.30;40.10;;;;;;4974656;28;20490;-77
2023/09/21 08:59:47;;;;;;;72.80;17.60;;;21.50;46.50;;;;;;4957146;28;20411;-77
2023/09/21 09:02:14;;;;;;;72.80;17.30;;;21.50;38.60;;;;;;4974913;28;20431;-77
2023/09/21 09:04:43;;;;;;;72.97;17.97;;;21.60;37.00;;;;;;4974513;28;20411;-77
2023/09/21 09:07:12;;;;;;;71.83;15.50;;;21.60;38.10;;;;;;4974513;28;20443;-77
2023/09/21 09:09:39;;;;;;;78.73;18.43;;;21.50;37.40;;;;;;4974774;28;20408;-77
2023/09/21 09:12:25;;;;;;;71.70;15.07;;;21.50;37.90;;;;;;4974527;28;20514;-77
2023/09/21 09:14:54;;;;;;;72.17;16.13;;;21.50;33.30;;;;;;4974107;28;20449;-77
2023/09/21 09:17:19;;;;;;;76.40;17.40;;;21.50;39.80;;;;;;4974376;28;20433;-78
2023/09/21 09:19:48;;;;;;;73.17;16.43;;;21.60;44.70;;;;;;4957709;28;20426;-77
2023/09/21 09:22:17;;;;;;;71.40;15.47;;;21.70;44.60;;;;;;4976063;28;20560;-78
2023/09/21 09:24:49;;;;;;;74.07;15.10;;;21.90;42.50;;;;;;4978321;28;20772;-77
2023/09/21 09:27:15;;;;;;;75.20;13.27;;;21.90;42.00;;;;;;4978490;28;20863;-77
2023/09/21 09:29:52;;;;;;;73.57;13.47;;;21.90;32.70;;;;;;4978778;28;20409;-77
2023/09/21 09:32:21;;;;;;;71.60;11.33;;;21.90;33.30;;;;;;4979217;28;20418;-77
2023/09/21 09:34:48;;;;;;;72.37;11.40;;;21.90;32.50;;;;;;4978096;28;20437;-77
2023/09/21 09:37:15;;;;;;;72.20;9.63;;;22.00;33.20;;;;;;4978199;28;20962;-77
2023/09/21 09:39:44;;;;;;;70.20;9.87;;;22.10;32.70;;;;;;4977796;28;20502;-77
2023/09/21 09:42:13;;;;;;;72.37;8.37;;;22.10;28.60;;;;;;4981068;28;20423;-79
2023/09/21 09:44:48;;;;;;;69.17;9.20;;;22.10;25.20;;;;;;4960889;28;20411;-77
2023/09/21 09:47:18;;;;;;;69.57;6.43;;;22.10;27.30;;;;;;4978112;28;21009;-77
2023/09/21 09:49:47;;;;;;;68.70;6.57;;;22.10;26.90;;;;;;4977756;28;20861;-78
2023/09/21 09:52:18;;;;;;;70.57;6.30;;;22.10;21.10;;;;;;4977702;28;20430;-77
2023/09/21 09:54:47;;;;;;;73.67;7.07;;;22.00;21.20;;;;;;4977557;28;20406;-77
2023/09/21 09:57:13;;;;;;;71.30;6.87;;;22.10;24.00;;;;;;4977495;28;20773;-77
2023/09/21 09:59:41;;;;;;;68.67;6.07;;;22.10;20.40;;;;;;4960060;28;20411;-77
2023/09/21 10:02:11;;;;;;;70.43;5.17;;;22.20;23.20;;;;;;4977685;28;20431;-77
2023/09/21 10:04:39;;;;;;;69.33;5.10;;;22.20;18.00;;;;;;4977839;28;20396;-77
2023/09/21 10:07:09;;;;;;;69.30;5.17;;;22.20;18.80;;;;;;4960111;28;20450;-78
2023/09/21 10:09:37;;;;;;;69.50;4.63;;;22.20;17.00;;;;;;4980900;28;20902;-77
2023/09/21 10:12:03;;;;;;;69.10;4.80;;;22.30;18.60;;;;;;4963475;28;20427;-77
2023/09/21 10:14:33;;;;;;;69.40;4.90;;;22.30;19.50;;;;;;4981045;28;20939;-78
2023/09/21 10:17:04;;;;;;;68.30;5.10;;;22.30;21.00;;;;;;4980158;28;20387;-78
2023/09/21 10:19:29;;;;;;;68.63;4.70;;;22.30;19.40;;;;;;4981114;28;20899;-78
2023/09/21 10:22:03;;;;;;;68.40;4.60;;;22.30;19.10;;;;;;4980807;28;20517;-78
2023/09/21 10:24:30;;;;;;;68.40;5.10;;;22.30;22.00;;;;;;4980515;28;20553;-78
2023/09/21 10:27:03;;;;;;;69.57;4.60;;;22.30;22.50;;;;;;4980901;28;20451;-78
2023/09/21 10:29:33;;;;;;;69.27;5.50;;;22.20;19.60;;;;;;4980639;28;20383;-78
2023/09/21 10:32:06;;;;;;;68.40;6.10;;;22.20;22.80;;;;;;4962644;28;20435;-78
2023/09/21 10:34:32;;;;;;;69.53;4.60;;;22.30;24.60;;;;;;4963040;28;20415;-78
2023/09/21 10:37:06;;;;;;;69.40;4.13;;;22.30;18.30;;;;;;4980947;28;20403;-78
2023/09/21 10:39:32;;;;;;;69.87;4.60;;;22.30;17.10;;;;;;4979777;28;20166;-77
2023/09/21 10:42:03;;;;;;;68.30;4.13;;;22.20;12.10;;;;;;4979942;28;20431;-78
2023/09/21 10:45:00;;;;;;;70.50;4.87;;;22.30;14.70;;;;;;4980545;28;20171;-77
2023/09/21 10:47:35;;;;;;;68.93;4.47;;;22.40;17.90;;;;;;4980376;28;20431;-78
2023/09/21 10:50:11;;;;;;;67.57;4.00;;;22.40;15.50;;;;;;4962627;28;20407;-78
2023/09/21 10:52:39;;;;;;;67.87;3.67;;;22.50;11.60;;;;;;4979837;28;20423;-77
2023/09/21 10:55:06;;;;;;;71.37;4.33;;;22.60;11.20;;;;;;4962772;28;20459;-78
2023/09/21 10:57:32;;;;;;;69.90;4.63;;;22.60;12.10;;;;;;4980124;28;20468;-78
2023/09/21 11:00:04;;;;;;;71.60;4.20;;;22.70;13.90;;;;;;4980231;28;20466;-78
2023/09/21 11:02:40;;;;;;;68.90;4.53;;;22.90;12.00;;;;;;4979811;28;20561;-78
2023/09/21 11:05:07;;;;;;;69.57;4.03;;;22.90;2.70;;;;;;4979818;28;20892;-78
2023/09/21 11:07:34;;;;;;;68.50;4.63;;;22.90;5.30;;;;;;4979616;28;20451;-77
2023/09/21 11:09:59;;;;;;;67.37;4.00;;;22.80;6.50;;;;;;4977609;28;20539;-78
2023/09/21 11:12:25;;;;;;;67.70;3.83;;;22.80;7.40;;;;;;4980543;28;20427;-78
2023/09/21 11:14:51;;;;;;;68.60;4.23;;;22.70;3.00;;;;;;4979329;28;20829;-78
2023/09/21 11:17:18;;;;;;;68.90;4.47;;;22.70;8.40;;;;;;4962510;28;20186;-78
2023/09/21 11:19:46;;;;;;;68.00;4.13;;;22.70;8.70;;;;;;4960232;28;20168;-78
2023/09/21 11:22:15;;;;;;;68.37;3.60;;;22.90;7.40;;;;;;4976829;28;20431;-77
2023/09/21 11:24:41;;;;;;;68.17;4.50;;;23.10;2.90;;;;;;4979593;28;20407;-78
2023/09/21 11:27:09;;;;;;;68.53;4.20;;;23.10;4.10;;;;;;4979151;28;20462;-78
2023/09/21 11:29:39;;;;;;;67.60;3.97;;;23.10;1.00;;;;;;4979722;28;20411;-78
2023/09/21 11:32:09;;;;;;;67.50;3.83;;;23.00;1.00;;;;;;4962070;28;20431;-78
2023/09/21 11:34:39;;;;;;;69.77;4.50;;;22.90;1.00;;;;;;4979299;28;20403;-78
2023/09/21 11:37:10;;;;;;;71.03;4.33;;;22.80;1.00;;;;;;4979265;28;20921;-78
2023/09/21 11:39:37;;;;;;;67.77;3.97;;;22.70;2.40;;;;;;4979576;28;20486;-78
2023/09/21 11:42:05;;;;;;;71.40;4.80;;;22.60;8.60;;;;;;4978958;28;20439;-78
2023/09/21 11:44:31;;;;;;;67.73;4.17;;;22.60;11.60;;;;;;4978743;28;20413;-78
2023/09/21 11:47:01;;;;;;;68.40;4.40;;;22.40;8.40;;;;;;4979005;28;20502;-78
2023/09/21 11:49:41;;;;;;;68.80;4.87;;;22.50;13.20;;;;;;4979622;28;20183;-78
2023/09/21 11:52:09;;;;;;;69.60;5.00;;;22.60;12.80;;;;;;4979359;28;20458;-78
2023/09/21 11:54:38;;;;;;;70.50;4.43;;;22.60;10.80;;;;;;4978262;28;20407;-77
2023/09/21 11:57:04;;;;;;;71.53;4.50;;;22.70;12.00;;;;;;4961970;28;20951;-77
2023/09/21 11:59:32;;;;;;;69.00;4.50;;;22.80;10.80;;;;;;4978762;28;20442;-78
2023/09/21 12:01:59;;;;;;;71.50;4.70;;;22.90;8.90;;;;;;4978952;28;20431;-78
2023/09/21 12:04:28;;;;;;;71.27;4.60;;;22.80;10.20;;;;;;4979385;28;20478;-78
2023/09/21 12:06:59;;;;;;;70.57;5.30;;;22.80;6.40;;;;;;4979269;28;20414;-78
2023/09/21 12:09:26;;;;;;;74.03;4.00;;;22.90;5.80;;;;;;4961895;28;20769;-78
2023/09/21 12:11:54;;;;;;;68.13;4.63;;;22.80;5.50;;;;;;4978572;28;20434;-78
2023/09/21 12:14:23;;;;;;;68.60;4.80;;;22.90;6.40;;;;;;4978703;28;20458;-78
2023/09/21 12:16:53;;;;;;;69.70;4.60;;;23.00;12.30;;;;;;4979289;28;20446;-78
2023/09/21 12:19:19;;;;;;;71.40;11.90;;;22.90;5.90;;;;;;4979123;28;20944;-78
2023/09/21 12:21:48;;;;;;;69.07;4.60;;;22.80;6.10;;;;;;4978394;28;20789;-78
2023/09/21 12:24:15;;;;;;;71.33;4.70;;;22.60;10.00;;;;;;4978659;28;20769;-78
2023/09/21 12:26:41;;;;;;;68.30;4.47;;;22.60;11.30;;;;;;4960841;28;20499;-78
2023/09/21 12:29:09;;;;;;;67.10;4.40;;;22.60;13.90;;;;;;4979025;28;20403;-78
2023/09/21 12:31:35;;;;;;;72.90;3.97;;;22.60;15.20;;;;;;4978884;28;20424;-77
2023/09/21 12:34:02;;;;;;;70.43;4.47;;;22.40;11.90;;;;;;4979034;28;20408;-78
2023/09/21 12:36:28;;;;;;;69.57;4.90;;;22.40;13.80;;;;;;4978329;28;20408;-78
2023/09/21 12:38:54;;;;;;;69.57;4.50;;;22.50;9.40;;;;;;4978272;28;20412;-78
2023/09/21 12:41:20;;;;;;;70.70;4.43;;;22.50;10.40;;;;;;4978948;28;20559;-77